»·PEaware :: N275ND KAVX-KSAN

N275ND :: KAVX-KSAN

FLIGHT INFORMATION

Flight Status: Arrived
Operator: Privately registered:
United States
More flights under this callsign
Pilot: John A. (19135)
Aircraft: CESSNA 172 SKYHAWK
(C172)
More flights by this aircraft type
Origin: KAVX Catalina
United States
Destination: KSAN San Diego Intl-Lindbergh
United States
More flights between these airports :: More routes between these airports
Route: +SXC V208 OCN V23 MZB
File this flight plan on PilotEdge
Remarks: I-8 Rating
Altitude:
(Current/Filed)
5,000ft
Speed:
(Current/Filed)
115kts
Departed: 10-Oct-19 09:10 AM
Arrived: 10-Oct-19 10:09 AM
Distance/Time
Traveled:
74nm/0:59
Distance/Time
To Go:
Arrived

Flight Plot

Page will automatically refresh every two minutes.


Map Options




Map Legend


Flown Route
Filed Route
Departure Airport
Arrival Airport
Navaid (VOR, NDB)
Fix

Horizontal Profiles

Position Reports

Time Latitude Longitude Heading Altitude Ground
Speed
10-Oct-19 08:36 33.403367 -118.416847 0 1556ft 0kts
10-Oct-19 08:37 33.403367 -118.416847 0 1556ft 0kts
10-Oct-19 08:38 33.403367 -118.416847 0 1556ft 0kts
10-Oct-19 08:39 33.403367 -118.416847 0 1556ft 0kts
10-Oct-19 08:40 33.403367 -118.416847 0 1556ft 0kts
10-Oct-19 08:41 33.403367 -118.416847 0 1556ft 0kts
10-Oct-19 08:42 33.403367 -118.416847 0 1556ft 0kts
10-Oct-19 08:43 33.403367 -118.416847 0 1556ft 0kts
10-Oct-19 08:44 33.403367 -118.416847 0 1556ft 0kts
10-Oct-19 08:45 33.403367 -118.416847 0 1556ft 0kts
10-Oct-19 08:46 33.403367 -118.416847 0 1556ft 0kts
10-Oct-19 08:47 33.403367 -118.416847 0 1556ft 0kts
10-Oct-19 08:48 33.403367 -118.416847 0 1556ft 0kts
10-Oct-19 08:49 33.403367 -118.416847 0 1556ft 0kts
10-Oct-19 08:50 33.403367 -118.416847 0 1556ft 0kts
10-Oct-19 08:51 33.403367 -118.416847 0 1556ft 0kts
10-Oct-19 08:52 33.403367 -118.416847 0 1556ft 0kts
10-Oct-19 08:53 33.403367 -118.416847 0 1556ft 0kts
10-Oct-19 08:54 33.403367 -118.416847 0 1556ft 0kts
10-Oct-19 08:55 33.403367 -118.416847 0 1556ft 0kts
10-Oct-19 08:56 33.403367 -118.416847 0 1556ft 0kts
10-Oct-19 08:57 33.403367 -118.416847 0 1556ft 0kts
10-Oct-19 08:58 33.403367 -118.416847 0 1556ft 0kts
10-Oct-19 08:59 33.403367 -118.416847 0 1556ft 0kts
10-Oct-19 09:00 33.403367 -118.416847 0 1556ft 0kts
10-Oct-19 09:01 33.403367 -118.416847 0 1556ft 0kts
10-Oct-19 09:02 33.405678 -118.413946 55 1529ft 20kts
10-Oct-19 09:03 33.407205 -118.411376 326 1499ft 0kts
10-Oct-19 09:04 33.407205 -118.411376 326 1499ft 0kts
10-Oct-19 09:05 33.407205 -118.411376 326 1499ft 0kts
10-Oct-19 09:06 33.407205 -118.411376 326 1499ft 0kts
10-Oct-19 09:07 33.407205 -118.411376 326 1499ft 0kts
10-Oct-19 09:08 33.407315 -118.411887 234 1503ft 14kts
10-Oct-19 09:09 33.397001 -118.430480 241 2101ft 77kts
10-Oct-19 09:10 33.386588 -118.428016 97 2863ft 81kts
10-Oct-19 09:11 33.383169 -118.400422 99 3612ft 87kts
10-Oct-19 09:12 33.378632 -118.371550 107 4340ft 89kts
10-Oct-19 09:13 33.374282 -118.342286 100 4977ft 96kts
10-Oct-19 09:14 33.368388 -118.304973 98 5027ft 121kts
10-Oct-19 09:15 33.362495 -118.265512 100 5027ft 120kts
10-Oct-19 09:16 33.355798 -118.226243 104 5027ft 120kts
10-Oct-19 09:17 33.347497 -118.187489 104 5027ft 120kts
10-Oct-19 09:18 33.339588 -118.148647 101 5027ft 120kts
10-Oct-19 09:19 33.334286 -118.109130 98 5027ft 120kts
10-Oct-19 09:20 33.329328 -118.069632 98 5027ft 120kts
10-Oct-19 09:21 33.324330 -118.030111 98 5027ft 120kts
10-Oct-19 09:22 33.319287 -117.990535 98 5027ft 120kts
10-Oct-19 09:23 33.314202 -117.950924 98 5027ft 120kts
10-Oct-19 09:24 33.308771 -117.911545 100 5027ft 120kts
10-Oct-19 09:25 33.303017 -117.872123 99 5027ft 120kts
10-Oct-19 09:26 33.297245 -117.832663 99 5027ft 120kts
10-Oct-19 09:27 33.291439 -117.793232 99 5027ft 120kts
10-Oct-19 09:28 33.285610 -117.753903 99 5027ft 120kts
10-Oct-19 09:30 33.279723 -117.714440 99 5027ft 120kts
10-Oct-19 09:31 33.273810 -117.675053 99 5027ft 120kts
10-Oct-19 09:32 33.267881 -117.635811 99 5027ft 120kts
10-Oct-19 09:33 33.261880 -117.596343 100 5027ft 120kts
10-Oct-19 09:34 33.255871 -117.557074 100 5027ft 120kts
10-Oct-19 09:35 33.250475 -117.517527 98 5027ft 120kts
10-Oct-19 09:36 33.245473 -117.477455 98 5027ft 120kts
10-Oct-19 09:37 33.240289 -117.436236 98 5027ft 120kts
10-Oct-19 09:38 33.218681 -117.410478 160 5027ft 120kts
10-Oct-19 09:39 33.186912 -117.397734 160 5027ft 120kts
10-Oct-19 09:40 33.155166 -117.384353 160 5027ft 120kts
10-Oct-19 09:41 33.123565 -117.371065 160 5027ft 120kts
10-Oct-19 09:42 33.091954 -117.357826 160 5027ft 120kts
10-Oct-19 09:43 33.060397 -117.344662 160 5027ft 120kts
10-Oct-19 09:44 33.028811 -117.331530 160 5027ft 120kts
10-Oct-19 09:45 32.997329 -117.317546 160 5027ft 120kts
10-Oct-19 09:45 32.970909 -117.306636 160 5027ft 120kts
10-Oct-19 09:47 32.933994 -117.290641 160 5027ft 120kts
10-Oct-19 09:48 32.902170 -117.276881 160 5027ft 120kts
10-Oct-19 09:48 32.875445 -117.265365 160 5027ft 120kts
10-Oct-19 09:50 32.837483 -117.247524 145 5028ft 120kts
10-Oct-19 09:51 32.826166 -117.208771 103 5027ft 120kts
10-Oct-19 09:51 32.819731 -117.173834 102 5027ft 120kts
10-Oct-19 09:52 32.811920 -117.130461 102 5027ft 125kts
10-Oct-19 09:54 32.802618 -117.079177 102 5027ft 126kts
10-Oct-19 09:54 32.796169 -117.041999 101 5027ft 126kts
10-Oct-19 09:55 32.788658 -116.997303 101 5027ft 126kts
10-Oct-19 09:56 32.781319 -116.953894 101 5027ft 126kts
10-Oct-19 09:57 32.770924 -116.915329 147 5101ft 121kts
10-Oct-19 09:58 32.737300 -116.911774 162 4367ft 125kts
10-Oct-19 09:59 32.705564 -116.901310 167 3992ft 110kts
10-Oct-19 10:00 32.680184 -116.911522 263 4096ft 99kts
10-Oct-19 10:01 32.680004 -116.946878 289 3645ft 119kts
10-Oct-19 10:02 32.704124 -116.976597 345 3138ft 125kts
10-Oct-19 10:03 32.724650 -117.005929 261 2891ft 132kts
10-Oct-19 10:04 32.711600 -117.047524 254 2653ft 121kts
10-Oct-19 10:05 32.710763 -117.089682 283 2433ft 133kts
10-Oct-19 10:06 32.719751 -117.133212 286 1865ft 117kts
10-Oct-19 10:07 32.727246 -117.163755 284 642ft 87kts
10-Oct-19 10:08 32.732288 -117.184194 329 15ft 13kts
10-Oct-19 10:09 32.733669 -117.184052 14 17ft 0kts
10-Oct-19 10:10 32.735378 -117.189300 178 17ft 0kts
10-Oct-19 10:11 32.735378 -117.189300 178 17ft 0kts
10-Oct-19 10:12 32.735378 -117.189300 178 17ft 0kts
10-Oct-19 10:13 32.735378 -117.189300 178 17ft 0kts
10-Oct-19 10:14 32.735378 -117.189300 178 17ft 0kts
10-Oct-19 10:15 32.735378 -117.189300 178 17ft 0kts

Navigation Log

Ident Type
Flight plan parsing failed, navigation log unavailable